Time,TemperatureF,DewpointF,PressureIn,WindDirection,WindDirectionDegrees,WindSpeedMPH,WindSpeedGustMPH,Humidity,HourlyPrecipIn,Conditions,Clouds,dailyrainin,SolarRadiationWatts/m^2,SoftwareType,DateUTC
2013-09-06 00:00:00,51.0,47.0,-100.00,North,2,1.0,3.0,86,-99.99,,,0.00,0.000000,,2013-09-06 07:00:00,
2013-09-06 00:42:00,51.0,47.0,-100.00,North,2,1.0,3.0,86,-99.99,,,0.00,0.000000,,2013-09-06 07:42:00,
2013-09-06 00:52:00,51.0,47.0,-100.00,North,2,1.0,3.0,86,-99.99,,,0.00,0.000000,,2013-09-06 07:52:00,
2013-09-06 01:00:00,41.0,39.0,-100.00,NW,309,1.0,4.0,92,-99.99,,,0.00,0.000000,,2013-09-06 08:00:00,
2013-09-06 01:42:00,41.0,39.0,-100.00,NW,309,1.0,4.0,92,-99.99,,,0.00,0.000000,,2013-09-06 08:42:00,
2013-09-06 01:52:00,41.0,39.0,-100.00,NW,309,1.0,4.0,92,-99.99,,,0.00,0.000000,,2013-09-06 08:52:00,
2013-09-06 02:00:00,39.0,39.0,-100.00,WNW,300,2.0,4.0,98,-99.99,,,0.00,0.000000,,2013-09-06 09:00:00,
2013-09-06 02:53:00,39.0,39.0,-100.00,WNW,300,2.0,4.0,98,-99.99,,,0.00,0.000000,,2013-09-06 09:53:00,
2013-09-06 03:00:00,38.0,38.0,-100.00,NNW,328,1.0,3.0,99,-99.99,,,0.00,0.000000,,2013-09-06 10:00:00,
2013-09-06 03:42:00,38.0,38.0,-100.00,NNW,328,1.0,3.0,99,-99.99,,,0.00,0.000000,,2013-09-06 10:42:00,
2013-09-06 03:53:00,38.0,38.0,-100.00,NNW,328,1.0,3.0,99,-99.99,,,0.00,0.000000,,2013-09-06 10:53:00,
2013-09-06 04:00:00,37.0,37.0,-100.00,North,349,3.0,5.0,99,-99.99,,,0.00,0.000000,,2013-09-06 11:00:00,
2013-09-06 04:42:00,37.0,37.0,-100.00,North,349,3.0,5.0,99,-99.99,,,0.00,0.000000,,2013-09-06 11:42:00,
2013-09-06 04:52:00,37.0,37.0,-100.00,North,349,3.0,5.0,99,-99.99,,,0.00,0.000000,,2013-09-06 11:52:00,
2013-09-06 05:00:00,37.0,37.0,-100.00,NNW,340,2.0,4.0,99,-99.99,,,0.00,0.000000,,2013-09-06 12:00:00,
2013-09-06 05:42:00,37.0,37.0,-100.00,NNW,340,2.0,4.0,99,-99.99,,,0.00,0.000000,,2013-09-06 12:42:00,
2013-09-06 05:52:00,37.0,37.0,-100.00,NNW,340,2.0,4.0,99,-99.99,,,0.00,0.000000,,2013-09-06 12:52:00,
2013-09-06 06:00:00,36.0,36.0,-100.00,NW,318,2.0,3.0,100,-99.99,,,0.00,0.000000,,2013-09-06 13:00:00,
2013-09-06 06:42:00,36.0,36.0,-100.00,NW,318,2.0,3.0,100,-99.99,,,0.00,0.000000,,2013-09-06 13:42:00,
2013-09-06 06:52:00,36.0,36.0,-100.00,NW,318,2.0,3.0,100,-99.99,,,0.00,0.000000,,2013-09-06 13:52:00,
2013-09-06 07:00:00,36.0,36.0,-100.00,WNW,299,2.0,5.0,100,-99.99,,,0.00,16.500000,,2013-09-06 14:00:00,
2013-09-06 07:42:00,36.0,36.0,-100.00,WNW,299,2.0,5.0,100,-99.99,,,0.00,16.500000,,2013-09-06 14:42:00,
2013-09-06 07:52:00,36.0,36.0,-100.00,WNW,299,2.0,5.0,100,-99.99,,,0.00,16.500000,,2013-09-06 14:52:00,
2013-09-06 08:00:00,42.0,42.0,-100.00,North,351,2.0,3.0,100,-99.99,,,0.00,150.039993,,2013-09-06 15:00:00,
2013-09-06 08:43:00,42.0,42.0,-100.00,North,351,2.0,3.0,100,-99.99,,,0.00,150.039993,,2013-09-06 15:43:00,
2013-09-06 08:53:00,42.0,42.0,-100.00,North,351,2.0,3.0,100,-99.99,,,0.00,150.039993,,2013-09-06 15:53:00,
2013-09-06 09:00:00,50.0,50.0,-100.00,NNW,332,2.0,4.0,99,-99.99,,,0.00,381.320007,,2013-09-06 16:00:00,
2013-09-06 09:42:00,50.0,50.0,-100.00,NNW,332,2.0,4.0,99,-99.99,,,0.00,381.320007,,2013-09-06 16:42:00,
2013-09-06 09:53:00,50.0,50.0,-100.00,NNW,332,2.0,4.0,99,-99.99,,,0.00,381.320007,,2013-09-06 16:53:00,
2013-09-06 10:00:00,57.0,48.0,-100.00,ESE,112,1.0,4.0,71,-99.99,,,0.00,564.250000,,2013-09-06 17:00:00,
2013-09-06 10:43:00,57.0,48.0,-100.00,ESE,112,1.0,4.0,71,-99.99,,,0.00,564.250000,,2013-09-06 17:43:00,
2013-09-06 10:53:00,57.0,48.0,-100.00,ESE,112,1.0,4.0,71,-99.99,,,0.00,564.250000,,2013-09-06 17:53:00,
2013-09-06 11:00:00,61.0,46.0,-100.00,East,87,1.0,4.0,56,-99.99,,,0.00,686.859985,,2013-09-06 18:00:00,
2013-09-06 11:42:00,61.0,46.0,-100.00,East,87,1.0,4.0,56,-99.99,,,0.00,686.859985,,2013-09-06 18:42:00,
2013-09-06 11:52:00,61.0,46.0,-100.00,East,87,1.0,4.0,56,-99.99,,,0.00,686.859985,,2013-09-06 18:52:00,
2013-09-06 12:00:00,65.0,47.0,-100.00,East,94,1.0,2.0,52,-99.99,,,0.00,776.000000,,2013-09-06 19:00:00,
2013-09-06 12:42:00,65.0,47.0,-100.00,East,94,1.0,2.0,52,-99.99,,,0.00,776.000000,,2013-09-06 19:42:00,
2013-09-06 12:52:00,65.0,47.0,-100.00,East,94,1.0,2.0,52,-99.99,,,0.00,776.000000,,2013-09-06 19:52:00,
2013-09-06 13:00:00,68.0,46.0,-100.00,East,95,1.0,2.0,46,-99.99,,,0.00,814.349976,,2013-09-06 20:00:00,
2013-09-06 13:42:00,68.0,46.0,-100.00,East,95,1.0,2.0,46,-99.99,,,0.00,814.349976,,2013-09-06 20:42:00,
2013-09-06 13:52:00,68.0,46.0,-100.00,East,95,1.0,2.0,46,-99.99,,,0.00,814.349976,,2013-09-06 20:52:00,
2013-09-06 14:00:00,69.0,43.0,-100.00,East,94,1.0,2.0,39,-99.99,,,0.00,707.080017,,2013-09-06 21:00:00,
2013-09-06 14:43:00,69.0,43.0,-100.00,East,94,1.0,2.0,39,-99.99,,,0.00,707.080017,,2013-09-06 21:43:00,
2013-09-06 14:54:00,69.0,43.0,-100.00,East,94,1.0,2.0,39,-99.99,,,0.00,707.080017,,2013-09-06 21:54:00,
2013-09-06 15:00:00,72.0,46.0,-100.00,SSE,160,2.0,5.0,40,-99.99,,,0.00,717.659973,,2013-09-06 22:00:00,
2013-09-06 15:44:00,72.0,46.0,-100.00,SSE,160,2.0,5.0,40,-99.99,,,0.00,717.659973,,2013-09-06 22:44:00,
2013-09-06 15:53:00,72.0,46.0,-100.00,SSE,160,2.0,5.0,40,-99.99,,,0.00,717.659973,,2013-09-06 22:53:00,
2013-09-06 16:00:00,75.0,50.0,-100.00,ENE,67,1.0,4.0,40,-99.99,,,0.00,597.719971,,2013-09-06 23:00:00,
2013-09-06 16:42:00,75.0,50.0,-100.00,ENE,67,1.0,4.0,40,-99.99,,,0.00,597.719971,,2013-09-06 23:42:00,
2013-09-06 16:52:00,75.0,50.0,-100.00,ENE,67,1.0,4.0,40,-99.99,,,0.00,597.719971,,2013-09-06 23:52:00,
2013-09-06 17:00:00,75.0,48.0,-100.00,North,1,5.0,8.0,39,-99.99,,,0.00,437.339996,,2013-09-07 00:00:00,
2013-09-06 17:42:00,75.0,48.0,-100.00,North,1,5.0,8.0,39,-99.99,,,0.00,437.339996,,2013-09-07 00:42:00,
2013-09-06 17:52:00,75.0,48.0,-100.00,North,1,5.0,8.0,39,-99.99,,,0.00,437.339996,,2013-09-07 00:52:00,
2013-09-06 18:00:00,74.0,50.0,-100.00,NW,306,4.0,8.0,42,-99.99,,,0.00,256.500000,,2013-09-07 01:00:00,
2013-09-06 18:42:00,74.0,50.0,-100.00,NW,306,4.0,8.0,42,-99.99,,,0.00,256.500000,,2013-09-07 01:42:00,
2013-09-06 18:53:00,74.0,50.0,-100.00,NW,306,4.0,8.0,42,-99.99,,,0.00,256.500000,,2013-09-07 01:53:00,
2013-09-06 19:00:00,69.0,51.0,-100.00,NNW,340,2.0,4.0,51,-99.99,,,0.00,33.470001,,2013-09-07 02:00:00,
2013-09-06 19:42:00,69.0,51.0,-100.00,NNW,340,2.0,4.0,51,-99.99,,,0.00,33.470001,,2013-09-07 02:42:00,
2013-09-06 19:52:00,69.0,51.0,-100.00,NNW,340,2.0,4.0,51,-99.99,,,0.00,33.470001,,2013-09-07 02:52:00,
2013-09-06 20:00:00,58.0,50.0,-100.00,NW,306,2.0,4.0,74,-99.99,,,0.00,0.460000,,2013-09-07 03:00:00,
2013-09-06 20:45:00,58.0,50.0,-100.00,NW,306,2.0,4.0,74,-99.99,,,0.00,0.460000,,2013-09-07 03:45:00,
2013-09-06 20:55:00,58.0,50.0,-100.00,NW,306,2.0,4.0,74,-99.99,,,0.00,0.460000,,2013-09-07 03:55:00,
2013-09-06 21:00:00,60.0,51.0,-100.00,NNE,23,2.0,4.0,70,-99.99,,,0.00,0.000000,,2013-09-07 04:00:00,
2013-09-06 21:43:00,60.0,51.0,-100.00,NNE,23,2.0,4.0,70,-99.99,,,0.00,0.000000,,2013-09-07 04:43:00,
2013-09-06 21:54:00,60.0,51.0,-100.00,NNE,23,2.0,4.0,70,-99.99,,,0.00,0.000000,,2013-09-07 04:54:00,
2013-09-06 22:00:00,55.0,49.0,-100.00,NNW,346,2.0,3.0,80,-99.99,,,0.00,0.000000,,2013-09-07 05:00:00,
2013-09-06 22:42:00,55.0,49.0,-100.00,NNW,346,2.0,3.0,80,-99.99,,,0.00,0.000000,,2013-09-07 05:42:00,
2013-09-06 22:52:00,55.0,49.0,-100.00,NNW,346,2.0,3.0,80,-99.99,,,0.00,0.000000,,2013-09-07 05:52:00,